sensor_id;sensor_type;location;lat;lon;timestamp;temperature;humidity
7708;DHT22;3896;48.758;8.888;2022-12-24T00:02:06;11.20;99.90
7708;DHT22;3896;48.758;8.888;2022-12-24T00:04:32;11.20;99.90
7708;DHT22;3896;48.758;8.888;2022-12-24T00:06:58;11.20;99.90
7708;DHT22;3896;48.758;8.888;2022-12-24T00:09:23;11.20;99.90
7708;DHT22;3896;48.758;8.888;2022-12-24T00:11:49;11.10;99.90
7708;DHT22;3896;48.758;8.888;2022-12-24T00:14:14;11.10;99.90
7708;DHT22;3896;48.758;8.888;2022-12-24T00:16:40;11.10;99.90
7708;DHT22;3896;48.758;8.888;2022-12-24T00:19:05;11.20;99.90
7708;DHT22;3896;48.758;8.888;2022-12-24T00:21:31;11.20;99.90
7708;DHT22;3896;48.758;8.888;2022-12-24T00:23:56;11.20;99.90
7708;DHT22;3896;48.758;8.888;2022-12-24T00:26:22;11.20;99.90
7708;DHT22;3896;48.758;8.888;2022-12-24T00:28:50;11.20;99.90
7708;DHT22;3896;48.758;8.888;2022-12-24T00:31:17;11.20;99.90
7708;DHT22;3896;48.758;8.888;2022-12-24T00:33:44;11.20;99.90
7708;DHT22;3896;48.758;8.888;2022-12-24T00:36:10;11.20;99.90
7708;DHT22;3896;48.758;8.888;2022-12-24T00:38:36;11.10;99.90
7708;DHT22;3896;48.758;8.888;2022-12-24T00:41:03;11.10;99.90
7708;DHT22;3896;48.758;8.888;2022-12-24T00:43:30;11.10;99.90
7708;DHT22;3896;48.758;8.888;2022-12-24T00:45:56;11.10;99.90
7708;DHT22;3896;48.758;8.888;2022-12-24T00:48:22;11.10;99.90
7708;DHT22;3896;48.758;8.888;2022-12-24T00:50:49;11.10;99.90
7708;DHT22;3896;48.758;8.888;2022-12-24T00:53:16;11.10;99.90
7708;DHT22;3896;48.758;8.888;2022-12-24T00:55:42;11.10;99.90
7708;DHT22;3896;48.758;8.888;2022-12-24T00:58:07;11.10;99.90
7708;DHT22;3896;48.758;8.888;2022-12-24T01:00:33;11.10;99.90
7708;DHT22;3896;48.758;8.888;2022-12-24T01:02:58;11.00;99.90
7708;DHT22;3896;48.758;8.888;2022-12-24T01:05:24;11.00;99.90
7708;DHT22;3896;48.758;8.888;2022-12-24T01:07:50;11.00;99.90
7708;DHT22;3896;48.758;8.888;2022-12-24T01:10:18;11.00;99.90
7708;DHT22;3896;48.758;8.888;2022-12-24T01:12:45;11.00;99.90
7708;DHT22;3896;48.758;8.888;2022-12-24T01:15:12;11.00;99.90
7708;DHT22;3896;48.758;8.888;2022-12-24T01:17:39;11.00;99.90
7708;DHT22;3896;48.758;8.888;2022-12-24T01:20:15;11.00;99.90
7708;DHT22;3896;48.758;8.888;2022-12-24T01:22:41;11.00;99.90
7708;DHT22;3896;48.758;8.888;2022-12-24T01:25:07;11.00;99.90
7708;DHT22;3896;48.758;8.888;2022-12-24T01:27:33;11.00;99.90
7708;DHT22;3896;48.758;8.888;2022-12-24T01:29:58;11.00;99.90
7708;DHT22;3896;48.758;8.888;2022-12-24T01:32:24;11.00;99.90
7708;DHT22;3896;48.758;8.888;2022-12-24T01:34:50;11.00;99.90
7708;DHT22;3896;48.758;8.888;2022-12-24T01:37:15;11.00;99.90
7708;DHT22;3896;48.758;8.888;2022-12-24T01:39:41;11.00;99.90
7708;DHT22;3896;48.758;8.888;2022-12-24T01:42:24;11.00;99.90
7708;DHT22;3896;48.758;8.888;2022-12-24T01:45:34;11.00;99.90
7708;DHT22;3896;48.758;8.888;2022-12-24T01:48:04;10.90;99.90
7708;DHT22;3896;48.758;8.888;2022-12-24T01:50:30;11.00;99.90
7708;DHT22;3896;48.758;8.888;2022-12-24T01:52:56;10.90;99.90
7708;DHT22;3896;48.758;8.888;2022-12-24T01:55:23;11.00;99.90
7708;DHT22;3896;48.758;8.888;2022-12-24T01:57:53;11.00;99.90
7708;DHT22;3896;48.758;8.888;2022-12-24T02:00:20;10.90;99.90
7708;DHT22;3896;48.758;8.888;2022-12-24T02:02:47;10.90;99.90
7708;DHT22;3896;48.758;8.888;2022-12-24T02:05:45;10.90;99.90
7708;DHT22;3896;48.758;8.888;2022-12-24T02:08:12;10.90;99.90
7708;DHT22;3896;48.758;8.888;2022-12-24T02:10:38;10.90;99.90
7708;DHT22;3896;48.758;8.888;2022-12-24T02:13:05;10.90;99.90
7708;DHT22;3896;48.758;8.888;2022-12-24T02:16:24;10.90;99.90
7708;DHT22;3896;48.758;8.888;2022-12-24T02:26:31;10.90;99.90
7708;DHT22;3896;48.758;8.888;2022-12-24T02:32:04;10.90;99.90
7708;DHT22;3896;48.758;8.888;2022-12-24T02:34:38;10.90;99.90
7708;DHT22;3896;48.758;8.888;2022-12-24T02:39:43;10.90;99.90
7708;DHT22;3896;48.758;8.888;2022-12-24T02:42:12;10.80;99.90
7708;DHT22;3896;48.758;8.888;2022-12-24T02:47:11;10.80;99.90
7708;DHT22;3896;48.758;8.888;2022-12-24T02:49:41;10.80;99.90
7708;DHT22;3896;48.758;8.888;2022-12-24T02:54:55;10.70;99.90
7708;DHT22;3896;48.758;8.888;2022-12-24T02:57:27;10.70;99.90
7708;DHT22;3896;48.758;8.888;2022-12-24T03:00:04;10.70;99.90
7708;DHT22;3896;48.758;8.888;2022-12-24T03:05:32;10.70;99.90
7708;DHT22;3896;48.758;8.888;2022-12-24T03:08:29;10.70;99.90
7708;DHT22;3896;48.758;8.888;2022-12-24T03:11:07;10.60;99.90
7708;DHT22;3896;48.758;8.888;2022-12-24T03:13:33;10.60;99.90
7708;DHT22;3896;48.758;8.888;2022-12-24T03:15:59;10.60;99.90
7708;DHT22;3896;48.758;8.888;2022-12-24T03:18:28;10.60;99.90
7708;DHT22;3896;48.758;8.888;2022-12-24T03:21:20;10.60;99.90
7708;DHT22;3896;48.758;8.888;2022-12-24T03:23:47;10.60;99.90
7708;DHT22;3896;48.758;8.888;2022-12-24T03:26:15;10.60;99.90
7708;DHT22;3896;48.758;8.888;2022-12-24T03:28:42;10.60;99.90
7708;DHT22;3896;48.758;8.888;2022-12-24T03:31:09;10.60;99.90
7708;DHT22;3896;48.758;8.888;2022-12-24T03:33:35;10.60;99.90
7708;DHT22;3896;48.758;8.888;2022-12-24T03:36:01;10.60;99.90
7708;DHT22;3896;48.758;8.888;2022-12-24T03:38:27;10.60;99.90
7708;DHT22;3896;48.758;8.888;2022-12-24T03:40:53;10.60;99.90
7708;DHT22;3896;48.758;8.888;2022-12-24T03:43:18;10.60;99.90
7708;DHT22;3896;48.758;8.888;2022-12-24T03:45:44;10.60;99.90
7708;DHT22;3896;48.758;8.888;2022-12-24T03:48:10;10.60;99.90
7708;DHT22;3896;48.758;8.888;2022-12-24T03:50:35;10.60;99.90
7708;DHT22;3896;48.758;8.888;2022-12-24T03:53:01;10.60;99.90
7708;DHT22;3896;48.758;8.888;2022-12-24T03:55:26;10.60;99.90
7708;DHT22;3896;48.758;8.888;2022-12-24T03:57:52;10.60;99.90
7708;DHT22;3896;48.758;8.888;2022-12-24T04:00:18;10.60;99.90
7708;DHT22;3896;48.758;8.888;2022-12-24T04:02:43;10.60;99.90
7708;DHT22;3896;48.758;8.888;2022-12-24T04:05:19;10.60;99.90
7708;DHT22;3896;48.758;8.888;2022-12-24T04:07:45;10.60;99.90
7708;DHT22;3896;48.758;8.888;2022-12-24T04:10:11;10.60;99.90
7708;DHT22;3896;48.758;8.888;2022-12-24T04:12:37;10.60;99.90
7708;DHT22;3896;48.758;8.888;2022-12-24T04:15:04;10.60;99.90
7708;DHT22;3896;48.758;8.888;2022-12-24T04:17:29;10.60;99.90
7708;DHT22;3896;48.758;8.888;2022-12-24T04:19:55;10.60;99.90
7708;DHT22;3896;48.758;8.888;2022-12-24T04:22:21;10.60;99.90
7708;DHT22;3896;48.758;8.888;2022-12-24T04:24:46;10.60;99.90
7708;DHT22;3896;48.758;8.888;2022-12-24T04:27:15;10.60;99.90
7708;DHT22;3896;48.758;8.888;2022-12-24T04:29:41;10.60;99.90
7708;DHT22;3896;48.758;8.888;2022-12-24T04:32:07;10.60;99.90
7708;DHT22;3896;48.758;8.888;2022-12-24T04:34:34;10.60;99.90
7708;DHT22;3896;48.758;8.888;2022-12-24T04:37:00;10.60;99.90
7708;DHT22;3896;48.758;8.888;2022-12-24T04:39:25;10.60;99.90
7708;DHT22;3896;48.758;8.888;2022-12-24T04:41:51;10.60;99.90
7708;DHT22;3896;48.758;8.888;2022-12-24T04:44:16;10.60;99.90
7708;DHT22;3896;48.758;8.888;2022-12-24T04:46:42;10.60;99.90
7708;DHT22;3896;48.758;8.888;2022-12-24T04:49:08;10.60;99.90
7708;DHT22;3896;48.758;8.888;2022-12-24T04:51:33;10.60;99.90
7708;DHT22;3896;48.758;8.888;2022-12-24T04:53:59;10.60;99.90
7708;DHT22;3896;48.758;8.888;2022-12-24T04:56:27;10.50;99.90
7708;DHT22;3896;48.758;8.888;2022-12-24T04:58:53;10.50;99.90
7708;DHT22;3896;48.758;8.888;2022-12-24T05:01:27;10.50;99.90
7708;DHT22;3896;48.758;8.888;2022-12-24T05:03:54;10.50;99.90
7708;DHT22;3896;48.758;8.888;2022-12-24T05:06:21;10.50;99.90
7708;DHT22;3896;48.758;8.888;2022-12-24T05:08:47;10.50;99.90
7708;DHT22;3896;48.758;8.888;2022-12-24T05:11:13;10.50;99.90
7708;DHT22;3896;48.758;8.888;2022-12-24T05:13:41;10.50;99.90
7708;DHT22;3896;48.758;8.888;2022-12-24T05:16:07;10.50;99.90
7708;DHT22;3896;48.758;8.888;2022-12-24T05:18:33;10.50;99.90
7708;DHT22;3896;48.758;8.888;2022-12-24T05:20:58;10.50;99.90
7708;DHT22;3896;48.758;8.888;2022-12-24T05:23:24;10.50;99.90
7708;DHT22;3896;48.758;8.888;2022-12-24T05:26:17;10.50;99.90
7708;DHT22;3896;48.758;8.888;2022-12-24T05:28:53;10.40;99.90
7708;DHT22;3896;48.758;8.888;2022-12-24T05:31:21;10.40;99.90
7708;DHT22;3896;48.758;8.888;2022-12-24T05:33:47;10.40;99.90
7708;DHT22;3896;48.758;8.888;2022-12-24T05:36:13;10.40;99.90
7708;DHT22;3896;48.758;8.888;2022-12-24T05:38:38;10.40;99.90
7708;DHT22;3896;48.758;8.888;2022-12-24T05:41:05;10.40;99.90
7708;DHT22;3896;48.758;8.888;2022-12-24T05:43:31;10.40;99.90
7708;DHT22;3896;48.758;8.888;2022-12-24T05:46:05;10.40;99.90
7708;DHT22;3896;48.758;8.888;2022-12-24T05:48:31;10.40;99.90
7708;DHT22;3896;48.758;8.888;2022-12-24T05:50:57;10.40;99.90
7708;DHT22;3896;48.758;8.888;2022-12-24T05:53:22;10.30;99.90
7708;DHT22;3896;48.758;8.888;2022-12-24T05:55:48;10.30;99.90
7708;DHT22;3896;48.758;8.888;2022-12-24T05:58:14;10.30;99.90
7708;DHT22;3896;48.758;8.888;2022-12-24T06:00:40;10.30;99.90
7708;DHT22;3896;48.758;8.888;2022-12-24T06:03:05;10.30;99.90
7708;DHT22;3896;48.758;8.888;2022-12-24T06:05:31;10.30;99.90
7708;DHT22;3896;48.758;8.888;2022-12-24T06:07:57;10.20;99.90
7708;DHT22;3896;48.758;8.888;2022-12-24T06:10:22;10.20;99.90
7708;DHT22;3896;48.758;8.888;2022-12-24T06:12:48;10.20;99.90
7708;DHT22;3896;48.758;8.888;2022-12-24T06:15:13;10.20;99.90
7708;DHT22;3896;48.758;8.888;2022-12-24T06:17:39;10.10;99.90
7708;DHT22;3896;48.758;8.888;2022-12-24T06:20:05;10.10;99.90
7708;DHT22;3896;48.758;8.888;2022-12-24T06:22:31;10.10;99.90
7708;DHT22;3896;48.758;8.888;2022-12-24T06:24:56;10.10;99.90
7708;DHT22;3896;48.758;8.888;2022-12-24T06:27:22;10.10;99.90
7708;DHT22;3896;48.758;8.888;2022-12-24T06:29:47;10.10;99.90
7708;DHT22;3896;48.758;8.888;2022-12-24T06:32:13;10.00;99.90
7708;DHT22;3896;48.758;8.888;2022-12-24T06:34:39;10.00;99.90
7708;DHT22;3896;48.758;8.888;2022-12-24T06:37:04;10.00;99.90
7708;DHT22;3896;48.758;8.888;2022-12-24T06:39:30;10.00;99.90
7708;DHT22;3896;48.758;8.888;2022-12-24T06:41:55;10.00;99.90
7708;DHT22;3896;48.758;8.888;2022-12-24T06:44:21;10.00;99.90
7708;DHT22;3896;48.758;8.888;2022-12-24T06:46:47;10.00;99.90
7708;DHT22;3896;48.758;8.888;2022-12-24T06:49:12;9.90;99.90
7708;DHT22;3896;48.758;8.888;2022-12-24T06:51:38;9.90;99.90
7708;DHT22;3896;48.758;8.888;2022-12-24T06:54:03;9.90;99.90
7708;DHT22;3896;48.758;8.888;2022-12-24T06:56:29;9.90;99.90
7708;DHT22;3896;48.758;8.888;2022-12-24T06:58:54;9.90;99.90
7708;DHT22;3896;48.758;8.888;2022-12-24T07:01:20;9.90;99.90
7708;DHT22;3896;48.758;8.888;2022-12-24T07:03:48;9.90;99.90
7708;DHT22;3896;48.758;8.888;2022-12-24T07:06:24;9.90;99.90
7708;DHT22;3896;48.758;8.888;2022-12-24T07:08:50;9.90;99.90
7708;DHT22;3896;48.758;8.888;2022-12-24T07:11:16;9.90;99.90
7708;DHT22;3896;48.758;8.888;2022-12-24T07:13:42;9.90;99.90
7708;DHT22;3896;48.758;8.888;2022-12-24T07:16:07;9.80;99.90
7708;DHT22;3896;48.758;8.888;2022-12-24T07:18:33;9.80;99.90
7708;DHT22;3896;48.758;8.888;2022-12-24T07:20:59;9.80;99.90
7708;DHT22;3896;48.758;8.888;2022-12-24T07:23:25;9.80;99.90
7708;DHT22;3896;48.758;8.888;2022-12-24T07:25:51;9.80;99.90
7708;DHT22;3896;48.758;8.888;2022-12-24T07:28:17;9.80;99.90
7708;DHT22;3896;48.758;8.888;2022-12-24T07:30:42;9.80;99.90
7708;DHT22;3896;48.758;8.888;2022-12-24T07:33:08;9.70;99.90
7708;DHT22;3896;48.758;8.888;2022-12-24T07:35:34;9.70;99.90
7708;DHT22;3896;48.758;8.888;2022-12-24T07:38:00;9.70;99.90
7708;DHT22;3896;48.758;8.888;2022-12-24T07:40:26;9.60;99.90
7708;DHT22;3896;48.758;8.888;2022-12-24T07:42:52;9.60;99.90
7708;DHT22;3896;48.758;8.888;2022-12-24T07:45:17;9.60;99.90
7708;DHT22;3896;48.758;8.888;2022-12-24T07:47:43;9.60;99.90
7708;DHT22;3896;48.758;8.888;2022-12-24T07:50:08;9.60;99.90
7708;DHT22;3896;48.758;8.888;2022-12-24T07:52:34;9.60;99.90
7708;DHT22;3896;48.758;8.888;2022-12-24T07:55:00;9.60;99.90
7708;DHT22;3896;48.758;8.888;2022-12-24T07:57:26;9.50;99.90
7708;DHT22;3896;48.758;8.888;2022-12-24T07:59:51;9.50;99.90
7708;DHT22;3896;48.758;8.888;2022-12-24T08:02:17;9.50;99.90
7708;DHT22;3896;48.758;8.888;2022-12-24T08:04:42;9.50;99.90
7708;DHT22;3896;48.758;8.888;2022-12-24T08:07:08;9.50;99.90
7708;DHT22;3896;48.758;8.888;2022-12-24T08:09:35;9.50;99.90
7708;DHT22;3896;48.758;8.888;2022-12-24T08:12:01;9.50;99.90
7708;DHT22;3896;48.758;8.888;2022-12-24T08:14:28;9.50;99.90
7708;DHT22;3896;48.758;8.888;2022-12-24T08:16:54;9.50;99.90
7708;DHT22;3896;48.758;8.888;2022-12-24T08:19:20;9.50;99.90
7708;DHT22;3896;48.758;8.888;2022-12-24T08:21:45;9.50;99.90
7708;DHT22;3896;48.758;8.888;2022-12-24T08:24:11;9.50;99.90
7708;DHT22;3896;48.758;8.888;2022-12-24T08:26:36;9.50;99.90
7708;DHT22;3896;48.758;8.888;2022-12-24T08:29:03;9.50;99.90
7708;DHT22;3896;48.758;8.888;2022-12-24T08:31:29;9.50;99.90
7708;DHT22;3896;48.758;8.888;2022-12-24T08:33:55;9.50;99.90
7708;DHT22;3896;48.758;8.888;2022-12-24T08:36:20;9.50;99.90
7708;DHT22;3896;48.758;8.888;2022-12-24T08:38:46;9.50;99.90
7708;DHT22;3896;48.758;8.888;2022-12-24T08:41:11;9.50;99.90
7708;DHT22;3896;48.758;8.888;2022-12-24T08:43:37;9.60;99.90
7708;DHT22;3896;48.758;8.888;2022-12-24T08:46:04;9.60;99.90
7708;DHT22;3896;48.758;8.888;2022-12-24T08:48:31;9.60;99.90
7708;DHT22;3896;48.758;8.888;2022-12-24T08:50:57;9.60;99.90
7708;DHT22;3896;48.758;8.888;2022-12-24T08:53:23;9.60;99.90
7708;DHT22;3896;48.758;8.888;2022-12-24T08:55:48;9.70;99.90
7708;DHT22;3896;48.758;8.888;2022-12-24T08:58:14;9.70;99.90
7708;DHT22;3896;48.758;8.888;2022-12-24T09:00:39;9.70;99.90
7708;DHT22;3896;48.758;8.888;2022-12-24T09:03:05;9.70;99.90
7708;DHT22;3896;48.758;8.888;2022-12-24T09:05:31;9.70;99.90
7708;DHT22;3896;48.758;8.888;2022-12-24T09:07:56;9.80;99.90
7708;DHT22;3896;48.758;8.888;2022-12-24T09:10:22;9.80;99.90
7708;DHT22;3896;48.758;8.888;2022-12-24T09:12:48;9.80;99.90
7708;DHT22;3896;48.758;8.888;2022-12-24T09:15:14;9.80;99.90
7708;DHT22;3896;48.758;8.888;2022-12-24T09:17:39;9.90;99.90
7708;DHT22;3896;48.758;8.888;2022-12-24T09:20:05;9.90;99.90
7708;DHT22;3896;48.758;8.888;2022-12-24T09:22:34;9.90;99.90
7708;DHT22;3896;48.758;8.888;2022-12-24T09:25:01;9.90;99.90
7708;DHT22;3896;48.758;8.888;2022-12-24T09:27:27;10.00;99.90
7708;DHT22;3896;48.758;8.888;2022-12-24T09:29:54;10.00;99.90
7708;DHT22;3896;48.758;8.888;2022-12-24T09:32:19;10.00;99.90
7708;DHT22;3896;48.758;8.888;2022-12-24T09:34:45;10.10;99.90
7708;DHT22;3896;48.758;8.888;2022-12-24T09:37:10;10.10;99.90
7708;DHT22;3896;48.758;8.888;2022-12-24T09:39:36;10.10;99.90
7708;DHT22;3896;48.758;8.888;2022-12-24T09:52:54;10.30;99.90
7708;DHT22;3896;48.758;8.888;2022-12-24T09:55:29;10.30;99.90
7708;DHT22;3896;48.758;8.888;2022-12-24T09:57:58;10.30;99.90
7708;DHT22;3896;48.758;8.888;2022-12-24T10:00:31;10.40;99.90
7708;DHT22;3896;48.758;8.888;2022-12-24T10:02:57;10.40;99.90
7708;DHT22;3896;48.758;8.888;2022-12-24T10:05:40;10.50;99.90
7708;DHT22;3896;48.758;8.888;2022-12-24T10:08:34;10.50;99.90
7708;DHT22;3896;48.758;8.888;2022-12-24T10:11:30;10.50;99.90
7708;DHT22;3896;48.758;8.888;2022-12-24T10:16:36;10.60;99.90
7708;DHT22;3896;48.758;8.888;2022-12-24T10:19:17;10.70;99.90
7708;DHT22;3896;48.758;8.888;2022-12-24T10:21:48;10.70;99.90
7708;DHT22;3896;48.758;8.888;2022-12-24T10:24:25;10.70;99.90
7708;DHT22;3896;48.758;8.888;2022-12-24T10:27:03;10.70;99.90
7708;DHT22;3896;48.758;8.888;2022-12-24T10:29:35;10.80;99.90
7708;DHT22;3896;48.758;8.888;2022-12-24T10:32:19;10.80;99.90
7708;DHT22;3896;48.758;8.888;2022-12-24T10:34:52;10.90;99.90
7708;DHT22;3896;48.758;8.888;2022-12-24T10:37:23;10.90;99.90
7708;DHT22;3896;48.758;8.888;2022-12-24T10:39:50;10.90;99.90
7708;DHT22;3896;48.758;8.888;2022-12-24T10:42:16;11.00;99.90
7708;DHT22;3896;48.758;8.888;2022-12-24T10:44:45;11.00;99.90
7708;DHT22;3896;48.758;8.888;2022-12-24T10:47:12;11.10;99.90
7708;DHT22;3896;48.758;8.888;2022-12-24T10:49:49;11.10;99.90
7708;DHT22;3896;48.758;8.888;2022-12-24T10:52:20;11.10;99.90
7708;DHT22;3896;48.758;8.888;2022-12-24T10:57:46;11.20;99.90
7708;DHT22;3896;48.758;8.888;2022-12-24T11:00:22;11.20;99.90
7708;DHT22;3896;48.758;8.888;2022-12-24T11:03:19;11.20;99.90
7708;DHT22;3896;48.758;8.888;2022-12-24T11:05:45;11.30;99.90
7708;DHT22;3896;48.758;8.888;2022-12-24T11:08:22;11.30;99.90
7708;DHT22;3896;48.758;8.888;2022-12-24T11:10:59;11.30;99.90
7708;DHT22;3896;48.758;8.888;2022-12-24T11:13:40;11.40;99.90
7708;DHT22;3896;48.758;8.888;2022-12-24T11:16:31;11.40;99.90
7708;DHT22;3896;48.758;8.888;2022-12-24T11:19:00;11.40;99.90
7708;DHT22;3896;48.758;8.888;2022-12-24T11:21:31;11.40;99.90
7708;DHT22;3896;48.758;8.888;2022-12-24T11:26:37;11.50;99.90
7708;DHT22;3896;48.758;8.888;2022-12-24T11:29:15;11.50;99.90
7708;DHT22;3896;48.758;8.888;2022-12-24T11:31:44;11.50;99.90
7708;DHT22;3896;48.758;8.888;2022-12-24T11:34:25;11.60;99.90
7708;DHT22;3896;48.758;8.888;2022-12-24T11:36:53;11.60;99.90
7708;DHT22;3896;48.758;8.888;2022-12-24T11:39:23;11.60;99.90
7708;DHT22;3896;48.758;8.888;2022-12-24T11:41:50;11.60;99.90
7708;DHT22;3896;48.758;8.888;2022-12-24T11:44:24;11.70;99.90
7708;DHT22;3896;48.758;8.888;2022-12-24T11:46:50;11.70;99.90
7708;DHT22;3896;48.758;8.888;2022-12-24T11:49:22;11.70;99.90
7708;DHT22;3896;48.758;8.888;2022-12-24T11:54:59;11.80;99.90
7708;DHT22;3896;48.758;8.888;2022-12-24T11:57:34;11.80;99.90
7708;DHT22;3896;48.758;8.888;2022-12-24T12:00:01;11.80;99.90
7708;DHT22;3896;48.758;8.888;2022-12-24T12:02:33;11.90;99.90
7708;DHT22;3896;48.758;8.888;2022-12-24T12:05:25;11.90;99.90
7708;DHT22;3896;48.758;8.888;2022-12-24T12:07:57;12.00;99.90
7708;DHT22;3896;48.758;8.888;2022-12-24T12:10:30;12.00;99.90
7708;DHT22;3896;48.758;8.888;2022-12-24T12:13:07;12.10;99.90
7708;DHT22;3896;48.758;8.888;2022-12-24T12:18:20;12.20;99.90
7708;DHT22;3896;48.758;8.888;2022-12-24T12:21:00;12.20;99.90
7708;DHT22;3896;48.758;8.888;2022-12-24T12:23:35;12.30;99.90
7708;DHT22;3896;48.758;8.888;2022-12-24T12:26:23;12.40;99.90
7708;DHT22;3896;48.758;8.888;2022-12-24T12:29:04;12.50;99.90
7708;DHT22;3896;48.758;8.888;2022-12-24T12:31:48;12.60;99.90
7708;DHT22;3896;48.758;8.888;2022-12-24T12:34:36;12.70;99.90
7708;DHT22;3896;48.758;8.888;2022-12-24T12:37:21;12.90;99.90
7708;DHT22;3896;48.758;8.888;2022-12-24T12:39:50;13.00;99.90
7708;DHT22;3896;48.758;8.888;2022-12-24T12:42:28;13.20;99.90
7708;DHT22;3896;48.758;8.888;2022-12-24T12:48:20;13.50;99.90
7708;DHT22;3896;48.758;8.888;2022-12-24T12:51:21;13.70;99.90
7708;DHT22;3896;48.758;8.888;2022-12-24T12:54:11;14.00;99.90
7708;DHT22;3896;48.758;8.888;2022-12-24T12:56:43;14.10;99.90
7708;DHT22;3896;48.758;8.888;2022-12-24T12:59:18;14.30;98.60
7708;DHT22;3896;48.758;8.888;2022-12-24T13:11:21;14.90;95.80
7708;DHT22;3896;48.758;8.888;2022-12-24T13:21:54;15.20;91.50
7708;DHT22;3896;48.758;8.888;2022-12-24T13:24:22;15.20;90.50
7708;DHT22;3896;48.758;8.888;2022-12-24T13:27:24;15.30;90.00
7708;DHT22;3896;48.758;8.888;2022-12-24T13:35:00;15.50;86.70
7708;DHT22;3896;48.758;8.888;2022-12-24T13:37:35;15.50;86.70
7708;DHT22;3896;48.758;8.888;2022-12-24T13:45:47;15.50;84.80
7708;DHT22;3896;48.758;8.888;2022-12-24T13:48:38;15.40;83.90
7708;DHT22;3896;48.758;8.888;2022-12-24T13:51:23;15.40;83.30
7708;DHT22;3896;48.758;8.888;2022-12-24T13:53:57;15.30;83.70
7708;DHT22;3896;48.758;8.888;2022-12-24T13:56:26;15.30;83.00
7708;DHT22;3896;48.758;8.888;2022-12-24T14:01:45;15.30;82.50
7708;DHT22;3896;48.758;8.888;2022-12-24T14:04:24;15.30;82.20
7708;DHT22;3896;48.758;8.888;2022-12-24T14:06:52;15.30;81.70
7708;DHT22;3896;48.758;8.888;2022-12-24T14:09:21;15.30;81.80
7708;DHT22;3896;48.758;8.888;2022-12-24T14:14:37;15.20;81.00
7708;DHT22;3896;48.758;8.888;2022-12-24T14:19:55;15.10;81.00
7708;DHT22;3896;48.758;8.888;2022-12-24T14:22:24;15.10;81.30
7708;DHT22;3896;48.758;8.888;2022-12-24T14:25:01;15.10;81.30
7708;DHT22;3896;48.758;8.888;2022-12-24T14:30:06;15.10;80.40
7708;DHT22;3896;48.758;8.888;2022-12-24T14:32:42;15.00;80.90
7708;DHT22;3896;48.758;8.888;2022-12-24T14:35:18;15.10;81.20
7708;DHT22;3896;48.758;8.888;2022-12-24T14:37:47;15.10;81.20
7708;DHT22;3896;48.758;8.888;2022-12-24T14:40:20;15.10;80.70
7708;DHT22;3896;48.758;8.888;2022-12-24T14:43:00;15.10;80.30
7708;DHT22;3896;48.758;8.888;2022-12-24T14:45:47;15.00;80.50
7708;DHT22;3896;48.758;8.888;2022-12-24T14:48:20;15.00;80.40
7708;DHT22;3896;48.758;8.888;2022-12-24T14:56:45;14.80;81.60
7708;DHT22;3896;48.758;8.888;2022-12-24T14:59:19;14.80;81.40
7708;DHT22;3896;48.758;8.888;2022-12-24T15:01:45;14.70;81.80
7708;DHT22;3896;48.758;8.888;2022-12-24T15:09:21;14.60;83.20
7708;DHT22;3896;48.758;8.888;2022-12-24T15:11:50;14.50;83.90
7708;DHT22;3896;48.758;8.888;2022-12-24T15:14:17;14.40;84.00
7708;DHT22;3896;48.758;8.888;2022-12-24T15:16:52;14.40;85.20
7708;DHT22;3896;48.758;8.888;2022-12-24T15:19:25;14.30;85.00
7708;DHT22;3896;48.758;8.888;2022-12-24T15:21:53;14.20;85.50
7708;DHT22;3896;48.758;8.888;2022-12-24T15:24:31;14.20;86.20
7708;DHT22;3896;48.758;8.888;2022-12-24T15:26:58;14.10;86.60
7708;DHT22;3896;48.758;8.888;2022-12-24T15:29:29;14.10;87.20
7708;DHT22;3896;48.758;8.888;2022-12-24T15:32:00;14.00;87.40
7708;DHT22;3896;48.758;8.888;2022-12-24T15:34:43;13.90;87.50
7708;DHT22;3896;48.758;8.888;2022-12-24T15:37:26;13.80;87.70
7708;DHT22;3896;48.758;8.888;2022-12-24T15:40:04;13.80;88.40
7708;DHT22;3896;48.758;8.888;2022-12-24T15:42:32;13.70;88.70
7708;DHT22;3896;48.758;8.888;2022-12-24T15:44:59;13.60;89.00
7708;DHT22;3896;48.758;8.888;2022-12-24T15:47:29;13.60;89.20
7708;DHT22;3896;48.758;8.888;2022-12-24T15:50:04;13.50;89.30
7708;DHT22;3896;48.758;8.888;2022-12-24T15:52:30;13.40;89.60
7708;DHT22;3896;48.758;8.888;2022-12-24T15:54:56;13.30;89.80
7708;DHT22;3896;48.758;8.888;2022-12-24T15:57:32;13.30;90.00
7708;DHT22;3896;48.758;8.888;2022-12-24T16:00:02;13.20;90.10
7708;DHT22;3896;48.758;8.888;2022-12-24T16:02:38;13.10;90.30
7708;DHT22;3896;48.758;8.888;2022-12-24T16:10:39;12.90;90.90
7708;DHT22;3896;48.758;8.888;2022-12-24T16:16:08;12.70;91.30
7708;DHT22;3896;48.758;8.888;2022-12-24T16:18:52;12.70;91.50
7708;DHT22;3896;48.758;8.888;2022-12-24T16:21:51;12.60;91.70
7708;DHT22;3896;48.758;8.888;2022-12-24T16:26:46;12.50;92.30
7708;DHT22;3896;48.758;8.888;2022-12-24T16:29:13;12.40;92.40
7708;DHT22;3896;48.758;8.888;2022-12-24T16:32:06;12.40;92.70
7708;DHT22;3896;48.758;8.888;2022-12-24T16:34:31;12.30;92.80
7708;DHT22;3896;48.758;8.888;2022-12-24T16:36:58;12.30;93.10
7708;DHT22;3896;48.758;8.888;2022-12-24T16:39:29;12.20;93.30
7708;DHT22;3896;48.758;8.888;2022-12-24T16:41:57;12.20;93.60
7708;DHT22;3896;48.758;8.888;2022-12-24T16:44:42;12.10;93.70
7708;DHT22;3896;48.758;8.888;2022-12-24T16:47:13;12.10;94.00
7708;DHT22;3896;48.758;8.888;2022-12-24T16:49:39;12.00;94.20
7708;DHT22;3896;48.758;8.888;2022-12-24T16:52:06;12.00;94.50
7708;DHT22;3896;48.758;8.888;2022-12-24T16:54:32;12.00;94.80
7708;DHT22;3896;48.758;8.888;2022-12-24T16:56:57;11.90;95.00
7708;DHT22;3896;48.758;8.888;2022-12-24T16:59:23;11.90;95.20
7708;DHT22;3896;48.758;8.888;2022-12-24T17:01:49;11.90;95.50
7708;DHT22;3896;48.758;8.888;2022-12-24T17:04:16;11.80;95.80
7708;DHT22;3896;48.758;8.888;2022-12-24T17:06:42;11.80;96.10
7708;DHT22;3896;48.758;8.888;2022-12-24T17:09:09;11.80;96.50
7708;DHT22;3896;48.758;8.888;2022-12-24T17:11:35;11.70;96.80
7708;DHT22;3896;48.758;8.888;2022-12-24T17:14:00;11.70;97.10
7708;DHT22;3896;48.758;8.888;2022-12-24T17:16:26;11.60;97.40
7708;DHT22;3896;48.758;8.888;2022-12-24T17:18:52;11.60;97.80
7708;DHT22;3896;48.758;8.888;2022-12-24T17:21:18;11.60;98.20
7708;DHT22;3896;48.758;8.888;2022-12-24T17:23:44;11.50;98.70
7708;DHT22;3896;48.758;8.888;2022-12-24T17:26:10;11.50;99.10
7708;DHT22;3896;48.758;8.888;2022-12-24T17:28:36;11.50;99.60
7708;DHT22;3896;48.758;8.888;2022-12-24T17:31:09;11.50;99.90
7708;DHT22;3896;48.758;8.888;2022-12-24T17:33:35;11.40;99.90
7708;DHT22;3896;48.758;8.888;2022-12-24T17:36:00;11.40;99.90
7708;DHT22;3896;48.758;8.888;2022-12-24T17:38:26;11.40;99.90
7708;DHT22;3896;48.758;8.888;2022-12-24T17:40:58;11.40;99.90
7708;DHT22;3896;48.758;8.888;2022-12-24T17:43:24;11.40;99.90
7708;DHT22;3896;48.758;8.888;2022-12-24T17:45:49;11.40;99.90
7708;DHT22;3896;48.758;8.888;2022-12-24T17:48:15;11.40;99.90
7708;DHT22;3896;48.758;8.888;2022-12-24T17:50:40;11.30;99.90
7708;DHT22;3896;48.758;8.888;2022-12-24T17:53:06;11.30;99.90
7708;DHT22;3896;48.758;8.888;2022-12-24T17:55:31;11.30;99.90
7708;DHT22;3896;48.758;8.888;2022-12-24T17:57:57;11.30;99.90
7708;DHT22;3896;48.758;8.888;2022-12-24T18:00:23;11.30;99.90
7708;DHT22;3896;48.758;8.888;2022-12-24T18:02:49;11.30;99.90
7708;DHT22;3896;48.758;8.888;2022-12-24T18:05:14;11.30;99.90
7708;DHT22;3896;48.758;8.888;2022-12-24T18:07:40;11.30;99.90
7708;DHT22;3896;48.758;8.888;2022-12-24T18:10:06;11.30;99.90
7708;DHT22;3896;48.758;8.888;2022-12-24T18:12:32;11.30;99.90